createdAt,value
2023-08-28T00:00:05.358Z,1.10
2023-08-28T00:02:32.842Z,1.10
2023-08-28T00:05:00.327Z,1.20
2023-08-28T00:07:28.629Z,1.10
2023-08-28T00:09:55.440Z,1.00
2023-08-28T00:12:22.288Z,0.90
2023-08-28T00:14:49.074Z,1.33
2023-08-28T00:17:17.712Z,1.10
2023-08-28T00:19:44.739Z,1.23
2023-08-28T00:22:11.638Z,1.43
2023-08-28T00:24:38.379Z,1.00
2023-08-28T00:27:05.577Z,1.40
2023-08-28T00:29:32.797Z,1.27
2023-08-28T00:31:59.857Z,1.07
2023-08-28T00:34:27.237Z,1.10
2023-08-28T00:36:54.034Z,0.90
2023-08-28T00:39:20.894Z,1.20
2023-08-28T00:41:47.998Z,1.00
2023-08-28T00:44:14.843Z,1.03
2023-08-28T00:46:42.006Z,1.20
2023-08-28T00:49:09.690Z,1.20
2023-08-28T00:51:38.649Z,1.27
2023-08-28T00:54:05.767Z,1.13
2023-08-28T00:56:32.674Z,1.20
2023-08-28T00:58:59.448Z,1.30
2023-08-28T01:01:26.383Z,1.10
2023-08-28T01:03:53.164Z,1.10
2023-08-28T01:06:30.057Z,1.30
2023-08-28T01:08:56.843Z,1.17
2023-08-28T01:11:47.711Z,1.30
2023-08-28T01:14:26.877Z,1.20
2023-08-28T01:17:03.384Z,1.43
2023-08-28T01:19:34.269Z,1.30
2023-08-28T01:22:23.985Z,1.40
2023-08-28T01:24:54.062Z,1.20
2023-08-28T01:27:22.304Z,1.20
2023-08-28T01:30:09.213Z,1.20
2023-08-28T01:32:36.330Z,1.07
2023-08-28T01:35:06.283Z,0.87
2023-08-28T01:37:40.686Z,1.20
2023-08-28T01:40:08.766Z,1.20
2023-08-28T01:42:35.741Z,1.40
2023-08-28T01:45:03.548Z,1.23
2023-08-28T01:47:30.472Z,1.30
2023-08-28T01:49:57.228Z,1.10
2023-08-28T01:52:24.051Z,1.47
2023-08-28T01:54:50.893Z,1.40
2023-08-28T01:57:17.709Z,1.20
2023-08-28T01:59:45.245Z,1.40
2023-08-28T02:02:12.151Z,1.10
2023-08-28T02:04:39.066Z,1.20
2023-08-28T02:07:05.899Z,1.23
2023-08-28T02:09:33.778Z,1.33
2023-08-28T02:12:00.742Z,1.20
2023-08-28T02:14:29.005Z,1.27
2023-08-28T02:16:55.999Z,1.30
2023-08-28T02:19:22.978Z,1.20
2023-08-28T02:21:49.758Z,1.13
2023-08-28T02:24:19.456Z,1.40
2023-08-28T02:26:46.424Z,1.57
2023-08-28T02:29:13.621Z,1.20
2023-08-28T02:31:40.527Z,1.27
2023-08-28T02:34:07.428Z,1.30
2023-08-28T02:36:34.204Z,1.30
2023-08-28T02:39:01.248Z,1.30
2023-08-28T02:41:28.035Z,1.53
2023-08-28T02:43:54.935Z,1.43
2023-08-28T02:46:21.951Z,1.20
2023-08-28T02:48:48.734Z,0.93
2023-08-28T02:51:15.650Z,1.43
2023-08-28T02:53:42.497Z,1.27
2023-08-28T02:56:18.526Z,1.70
2023-08-28T02:58:45.508Z,1.40
2023-08-28T03:01:12.456Z,1.33
2023-08-28T03:03:39.333Z,1.30
2023-08-28T03:06:06.426Z,1.20
2023-08-28T03:08:33.319Z,1.60
2023-08-28T03:11:00.053Z,1.20
2023-08-28T03:13:26.896Z,1.20
2023-08-28T03:15:54.051Z,1.30
2023-08-28T03:18:20.971Z,1.50
2023-08-28T03:20:48.442Z,1.53
2023-08-28T03:23:15.379Z,1.20
2023-08-28T03:25:44.317Z,1.80
2023-08-28T03:28:13.766Z,1.43
2023-08-28T03:30:40.644Z,1.20
2023-08-28T03:33:09.209Z,1.50
2023-08-28T03:35:36.229Z,1.23
2023-08-28T03:38:03.009Z,1.80
2023-08-28T03:40:31.084Z,1.33
2023-08-28T03:42:57.845Z,1.60
2023-08-28T03:45:24.614Z,1.67
2023-08-28T03:47:51.617Z,1.80
2023-08-28T03:50:19.215Z,1.67
2023-08-28T03:52:45.905Z,1.67
2023-08-28T03:55:13.077Z,1.70
2023-08-28T03:57:40.245Z,1.53
2023-08-28T04:00:12.244Z,1.60
2023-08-28T04:02:42.404Z,1.80
2023-08-28T04:05:09.718Z,1.67
2023-08-28T04:07:36.698Z,1.60
2023-08-28T04:10:04.244Z,1.63
2023-08-28T04:12:34.025Z,1.93
2023-08-28T04:15:02.094Z,1.90
2023-08-28T04:17:28.952Z,2.00
2023-08-28T04:19:56.489Z,1.87
2023-08-28T04:22:23.947Z,2.10
2023-08-28T04:24:51.845Z,2.30
2023-08-28T04:27:18.768Z,1.93
2023-08-28T04:29:45.564Z,1.77
2023-08-28T04:32:14.609Z,2.07
2023-08-28T04:34:44.912Z,2.00
2023-08-28T04:37:11.870Z,1.93
2023-08-28T04:39:38.612Z,1.90
2023-08-28T04:42:05.862Z,2.50
2023-08-28T04:44:32.775Z,2.50
2023-08-28T04:47:01.234Z,2.40
2023-08-28T04:49:29.658Z,2.40
2023-08-28T04:51:58.618Z,2.40
2023-08-28T04:54:25.580Z,2.57
2023-08-28T04:56:54.981Z,2.60
2023-08-28T04:59:22.420Z,2.70
2023-08-28T05:01:49.280Z,2.90
2023-08-28T05:04:15.981Z,2.63
2023-08-28T05:06:42.780Z,2.80
2023-08-28T05:09:11.673Z,3.10
2023-08-28T05:11:39.296Z,2.80
2023-08-28T05:14:06.146Z,2.77
2023-08-28T05:16:33.377Z,2.80
2023-08-28T05:19:00.114Z,3.00
2023-08-28T05:21:26.848Z,3.30
2023-08-28T05:23:54.283Z,2.53
2023-08-28T05:26:21.270Z,3.53
2023-08-28T05:28:48.138Z,2.70
2023-08-28T05:31:15.503Z,3.03
2023-08-28T05:33:42.771Z,2.63
2023-08-28T05:36:10.238Z,2.70
2023-08-28T05:38:37.048Z,2.47
2023-08-28T05:41:04.937Z,2.77
2023-08-28T05:43:31.654Z,2.77
2023-08-28T05:45:58.570Z,2.70
2023-08-28T05:48:25.870Z,2.47
2023-08-28T05:50:53.138Z,2.67
2023-08-28T05:53:21.560Z,3.07
2023-08-28T05:55:48.719Z,2.87
2023-08-28T05:58:15.755Z,3.10
2023-08-28T06:00:43.661Z,3.00
2023-08-28T06:03:10.930Z,2.87
2023-08-28T06:05:39.372Z,2.40
2023-08-28T06:08:06.768Z,2.80
2023-08-28T06:10:35.091Z,2.90
2023-08-28T06:13:03.178Z,2.60
2023-08-28T06:15:31.432Z,2.60
2023-08-28T06:17:58.568Z,2.77
2023-08-28T06:20:25.918Z,2.83
2023-08-28T06:22:52.695Z,3.13
2023-08-28T06:25:19.576Z,2.50
2023-08-28T06:27:46.440Z,2.60
2023-08-28T06:30:13.578Z,2.90
2023-08-28T06:32:40.779Z,2.80
2023-08-28T06:35:08.456Z,2.97
2023-08-28T06:37:38.028Z,3.27
2023-08-28T06:40:05.405Z,3.33
2023-08-28T06:42:32.440Z,2.97
2023-08-28T06:45:01.391Z,2.83
2023-08-28T06:47:28.888Z,2.73
2023-08-28T06:49:55.706Z,2.80
2023-08-28T06:52:23.336Z,3.30
2023-08-28T06:54:51.778Z,3.13
2023-08-28T06:57:19.468Z,2.97
2023-08-28T06:59:46.850Z,2.97
2023-08-28T07:02:14.263Z,3.03
2023-08-28T07:04:41.555Z,3.23
2023-08-28T07:07:08.602Z,3.20
2023-08-28T07:09:35.872Z,2.83
2023-08-28T07:12:03.046Z,3.17
2023-08-28T07:14:29.905Z,3.13
2023-08-28T07:16:56.653Z,2.70
2023-08-28T07:19:23.585Z,2.73
2023-08-28T07:21:50.439Z,2.67
2023-08-28T07:24:17.488Z,3.07
2023-08-28T07:26:44.668Z,3.43
2023-08-28T07:29:11.886Z,3.00
2023-08-28T07:31:38.850Z,2.60
2023-08-28T07:34:06.075Z,3.37
2023-08-28T07:36:33.270Z,3.07
2023-08-28T07:39:00.626Z,3.30
2023-08-28T07:41:28.022Z,3.17
2023-08-28T07:43:55.014Z,3.23
2023-08-28T07:46:21.925Z,3.40
2023-08-28T07:48:48.974Z,2.87
2023-08-28T07:51:16.134Z,3.23
2023-08-28T07:53:43.162Z,3.43
2023-08-28T07:56:12.285Z,2.90
2023-08-28T07:58:39.444Z,2.90
2023-08-28T08:01:07.287Z,2.77
2023-08-28T08:03:34.933Z,2.77
2023-08-28T08:06:02.158Z,4.10
2023-08-28T08:08:29.077Z,3.20
2023-08-28T08:10:56.034Z,3.10
2023-08-28T08:13:22.859Z,3.10
2023-08-28T08:15:49.660Z,3.27
2023-08-28T08:18:16.828Z,3.20
2023-08-28T08:20:43.609Z,3.50
2023-08-28T08:23:10.738Z,3.60
2023-08-28T08:25:40.552Z,3.03
2023-08-28T08:28:07.504Z,3.40
2023-08-28T08:30:34.229Z,3.47
2023-08-28T08:33:01.105Z,3.07
2023-08-28T08:35:29.517Z,6.80
2023-08-28T08:37:56.477Z,3.20
2023-08-28T08:40:27.819Z,3.37
2023-08-28T08:42:55.623Z,3.37
2023-08-28T08:45:27.288Z,3.23
2023-08-28T08:47:56.603Z,3.43
2023-08-28T08:50:25.177Z,3.43
2023-08-28T08:52:52.603Z,3.13
2023-08-28T08:55:44.354Z,2.63
2023-08-28T08:58:12.747Z,3.07
2023-08-28T09:00:41.043Z,3.27
2023-08-28T09:03:08.755Z,3.37
2023-08-28T09:05:36.803Z,3.20
2023-08-28T09:08:06.632Z,2.73
2023-08-28T09:10:34.238Z,2.70
2023-08-28T09:13:01.241Z,2.67
2023-08-28T09:15:28.096Z,2.27
2023-08-28T09:17:57.595Z,2.10
2023-08-28T09:20:27.511Z,2.40
2023-08-28T09:22:55.248Z,1.67
2023-08-28T09:25:23.657Z,2.10
2023-08-28T09:27:53.102Z,1.77
2023-08-28T09:30:40.091Z,2.00
2023-08-28T09:33:08.739Z,2.00
2023-08-28T09:35:43.277Z,2.17
2023-08-28T09:38:11.162Z,1.90
2023-08-28T09:40:42.931Z,2.20
2023-08-28T09:43:17.577Z,2.00
2023-08-28T09:45:46.392Z,1.73
2023-08-28T09:48:14.134Z,1.73
2023-08-28T09:50:42.529Z,1.63
2023-08-28T09:53:10.768Z,1.63
2023-08-28T09:55:46.562Z,1.60
2023-08-28T09:58:13.622Z,1.73
2023-08-28T10:00:41.637Z,1.97
2023-08-28T10:03:12.268Z,1.37
2023-08-28T10:05:44.951Z,1.70
2023-08-28T10:08:16.021Z,1.50
2023-08-28T10:10:47.336Z,1.30
2023-08-28T10:13:21.812Z,1.37
2023-08-28T10:16:13.151Z,1.30
2023-08-28T10:21:19.860Z,1.13
2023-08-28T10:23:48.500Z,1.10
2023-08-28T10:26:15.620Z,1.00
2023-08-28T10:28:42.665Z,1.00
2023-08-28T10:31:10.376Z,1.07
2023-08-28T10:33:37.565Z,1.00
2023-08-28T10:36:10.574Z,0.90
2023-08-28T10:38:43.693Z,1.20
2023-08-28T10:41:15.161Z,1.07
2023-08-28T10:43:42.352Z,0.87
2023-08-28T10:46:09.870Z,0.83
2023-08-28T10:48:40.224Z,0.60
2023-08-28T10:51:11.912Z,0.80
2023-08-28T10:53:40.188Z,1.50
2023-08-28T10:56:07.754Z,0.90
2023-08-28T10:58:38.540Z,0.80
2023-08-28T11:01:15.669Z,1.20
2023-08-28T11:03:51.646Z,1.00
2023-08-28T11:06:37.741Z,1.40
2023-08-28T11:09:29.614Z,0.80
2023-08-28T11:12:00.148Z,1.17
2023-08-28T11:14:47.832Z,1.10
2023-08-28T11:17:23.989Z,0.90
2023-08-28T11:19:55.046Z,1.30
2023-08-28T11:22:31.596Z,1.10
2023-08-28T11:25:00.282Z,1.30
2023-08-28T11:27:50.281Z,1.10
2023-08-28T11:30:20.754Z,1.40
2023-08-28T11:32:53.373Z,1.10
2023-08-28T11:35:21.907Z,1.30
2023-08-28T11:37:53.314Z,0.93
2023-08-28T11:40:22.467Z,1.17
2023-08-28T11:42:50.200Z,1.30
2023-08-28T11:45:25.341Z,1.40
2023-08-28T11:47:53.563Z,1.33
2023-08-28T11:50:20.551Z,1.30
2023-08-28T11:52:50.942Z,1.10
2023-08-28T11:55:21.045Z,1.23
2023-08-28T12:24:34.404Z,1.10
2023-08-28T12:27:01.643Z,1.10
2023-08-28T12:29:29.247Z,1.20
2023-08-28T12:31:56.272Z,1.20
2023-08-28T12:34:29.450Z,1.43
2023-08-28T12:37:12.617Z,1.20
2023-08-28T12:39:48.006Z,1.10
2023-08-28T12:42:15.322Z,1.23
2023-08-28T12:44:44.039Z,1.30
2023-08-28T12:52:20.136Z,1.37
2023-08-28T12:54:46.920Z,1.60
2023-08-28T12:57:13.707Z,1.47
2023-08-28T12:59:42.318Z,1.50
2023-08-28T13:02:10.746Z,1.17
2023-08-28T13:04:39.687Z,1.20
2023-08-28T13:07:06.484Z,1.10
2023-08-28T13:09:33.312Z,1.13
2023-08-28T13:12:00.819Z,1.37
2023-08-28T13:14:29.179Z,1.20
2023-08-28T13:16:56.252Z,1.20
2023-08-28T13:19:23.327Z,1.20
2023-08-28T13:21:54.365Z,1.10
2023-08-28T13:24:29.968Z,1.37
2023-08-28T13:27:05.189Z,1.23
2023-08-28T13:29:31.916Z,1.20
2023-08-28T13:31:58.686Z,1.30
2023-08-28T13:34:25.601Z,1.40
2023-08-28T13:36:52.298Z,1.20
2023-08-28T13:39:19.118Z,1.10
2023-08-28T13:41:45.983Z,1.20
2023-08-28T13:44:13.485Z,1.43
2023-08-28T13:46:42.415Z,1.30
2023-08-28T13:49:09.205Z,1.40
2023-08-28T13:51:35.874Z,1.13
2023-08-28T13:54:02.657Z,1.10
2023-08-28T13:56:32.572Z,1.30
2023-08-28T13:58:59.685Z,1.37
2023-08-28T14:01:26.383Z,1.33
2023-08-28T14:03:54.142Z,1.40
2023-08-28T14:06:21.079Z,1.30
2023-08-28T14:08:48.060Z,1.40
2023-08-28T14:11:15.776Z,1.40
2023-08-28T14:13:42.488Z,1.43
2023-08-28T14:16:09.311Z,1.60
2023-08-28T14:18:36.137Z,1.40
2023-08-28T14:21:05.004Z,1.10
2023-08-28T14:23:33.618Z,1.47
2023-08-28T14:26:04.992Z,1.30
2023-08-28T14:28:33.105Z,1.30
2023-08-28T14:31:00.140Z,1.10
2023-08-28T14:33:26.978Z,1.40
2023-08-28T14:35:53.688Z,1.33
2023-08-28T14:38:20.638Z,1.30
2023-08-28T14:40:53.888Z,1.10
2023-08-28T14:43:20.880Z,1.20
2023-08-28T14:45:47.953Z,1.70
2023-08-28T14:48:15.276Z,1.77
2023-08-28T14:50:42.086Z,1.77
2023-08-28T14:53:09.275Z,1.97
2023-08-28T14:55:36.361Z,1.47
2023-08-28T14:58:04.978Z,1.47
2023-08-28T15:00:35.584Z,1.77
2023-08-28T15:03:03.166Z,1.73
2023-08-28T15:05:34.273Z,1.87
2023-08-28T15:08:15.116Z,1.40
2023-08-28T15:10:44.583Z,1.97
2023-08-28T15:13:11.481Z,1.50
2023-08-28T15:15:47.895Z,1.57
2023-08-28T15:18:14.794Z,1.40
2023-08-28T15:20:42.056Z,1.90
2023-08-28T15:23:08.888Z,1.53
2023-08-28T15:25:35.812Z,1.83
2023-08-28T15:28:03.487Z,1.73
2023-08-28T15:30:31.224Z,1.40
2023-08-28T15:33:03.690Z,1.97
2023-08-28T15:35:30.880Z,1.47
2023-08-28T15:38:00.243Z,1.57
2023-08-28T15:40:27.783Z,1.30
2023-08-28T15:42:56.154Z,1.50
2023-08-28T15:45:23.120Z,1.27
2023-08-28T15:47:50.370Z,1.20
2023-08-28T15:50:17.388Z,1.57
2023-08-28T15:52:44.237Z,1.50
2023-08-28T15:55:12.296Z,1.50
2023-08-28T15:57:39.174Z,1.30
2023-08-28T16:00:08.617Z,1.37
2023-08-28T16:02:35.963Z,1.60
2023-08-28T16:05:05.711Z,1.10
2023-08-28T16:07:32.612Z,1.10
2023-08-28T16:09:59.467Z,1.10
2023-08-28T16:12:26.261Z,1.17
2023-08-28T16:14:53.144Z,1.10
2023-08-28T16:17:19.967Z,1.30
2023-08-28T16:19:46.689Z,1.10
2023-08-28T16:22:13.462Z,0.90
2023-08-28T16:24:40.905Z,1.10
2023-08-28T16:27:07.846Z,1.10
2023-08-28T16:29:35.530Z,1.17
2023-08-28T16:32:02.450Z,1.20
2023-08-28T16:34:29.849Z,0.93
2023-08-28T16:36:56.601Z,1.00
2023-08-28T16:39:23.882Z,1.03
2023-08-28T16:41:50.838Z,0.90
2023-08-28T16:44:17.582Z,0.87
2023-08-28T16:46:45.222Z,1.20
2023-08-28T16:49:12.126Z,1.00
2023-08-28T16:51:40.361Z,1.23
2023-08-28T16:54:07.067Z,1.33
2023-08-28T16:56:34.109Z,0.73
2023-08-28T16:59:01.034Z,1.13
2023-08-28T17:01:27.875Z,1.07
2023-08-28T17:03:55.442Z,1.07
2023-08-28T17:06:22.633Z,0.73
2023-08-28T17:08:49.630Z,1.10
2023-08-28T17:11:17.207Z,1.00
2023-08-28T17:13:44.169Z,1.20
2023-08-28T17:16:11.105Z,1.10
2023-08-28T17:18:39.396Z,1.30
2023-08-28T17:21:06.228Z,1.00
2023-08-28T17:23:32.986Z,1.47
2023-08-28T17:25:59.961Z,0.90
2023-08-28T17:28:26.845Z,1.00
2023-08-28T17:30:53.686Z,1.30
2023-08-28T17:33:25.925Z,1.10
2023-08-28T17:35:53.242Z,1.10
2023-08-28T17:38:19.961Z,1.00
2023-08-28T17:40:48.718Z,1.13
2023-08-28T17:43:15.682Z,1.00
2023-08-28T17:45:48.442Z,0.80
2023-08-28T17:48:15.343Z,1.13
2023-08-28T17:50:45.162Z,1.20
2023-08-28T17:53:23.065Z,1.10
2023-08-28T17:55:50.438Z,1.00
2023-08-28T17:58:18.581Z,0.90
2023-08-28T18:00:45.585Z,0.90
2023-08-28T18:03:27.626Z,1.00
2023-08-28T18:05:59.354Z,1.00
2023-08-28T18:08:28.065Z,1.10
2023-08-28T18:10:54.999Z,0.93
2023-08-28T18:13:21.813Z,1.10
2023-08-28T18:15:48.889Z,1.33
2023-08-28T18:18:16.068Z,1.23
2023-08-28T18:20:46.940Z,1.30
2023-08-28T18:23:15.536Z,1.30
2023-08-28T18:25:43.237Z,1.13
2023-08-28T18:28:13.240Z,1.17
2023-08-28T18:30:40.644Z,0.97
2023-08-28T18:33:07.731Z,1.20
2023-08-28T18:35:34.778Z,1.20
2023-08-28T18:38:01.765Z,1.17
2023-08-28T18:40:28.954Z,1.00
2023-08-28T18:42:55.940Z,1.40
2023-08-28T18:45:24.497Z,1.07
2023-08-28T18:47:52.914Z,1.33
2023-08-28T18:50:19.847Z,1.03
2023-08-28T18:52:46.609Z,1.30
2023-08-28T18:55:26.614Z,0.97
2023-08-28T18:57:59.509Z,1.20
2023-08-28T19:00:29.288Z,1.00
2023-08-28T19:02:57.476Z,1.27
2023-08-28T19:05:25.145Z,1.03
2023-08-28T19:07:52.303Z,1.20
2023-08-28T19:10:19.202Z,1.20
2023-08-28T19:12:46.087Z,1.40
2023-08-28T19:15:13.761Z,1.40
2023-08-28T19:17:41.363Z,1.30
2023-08-28T19:20:08.800Z,1.50
2023-08-28T19:22:35.770Z,1.30
2023-08-28T19:25:02.883Z,1.37
2023-08-28T19:27:30.294Z,1.60
2023-08-28T19:29:57.340Z,1.53
2023-08-28T19:32:35.447Z,1.30
2023-08-28T19:35:14.280Z,1.60
2023-08-28T19:37:42.645Z,1.40
2023-08-28T19:40:11.966Z,1.50
2023-08-28T19:42:39.735Z,1.50
2023-08-28T19:45:07.733Z,1.53
2023-08-28T19:47:34.914Z,1.60
2023-08-28T19:50:01.992Z,1.67
2023-08-28T19:52:29.461Z,1.50
2023-08-28T19:54:56.557Z,2.17
2023-08-28T19:57:25.858Z,2.00
2023-08-28T19:59:52.971Z,1.37
2023-08-28T20:02:19.929Z,1.83
2023-08-28T20:04:47.208Z,1.80
2023-08-28T20:07:18.287Z,1.43
2023-08-28T20:09:45.791Z,2.00
2023-08-28T20:12:13.959Z,1.87
2023-08-28T20:14:45.196Z,1.90
2023-08-28T20:17:12.664Z,1.80
2023-08-28T20:19:39.574Z,1.50
2023-08-28T20:22:06.366Z,2.30
2023-08-28T20:24:34.294Z,1.77
2023-08-28T20:27:03.397Z,2.10
2023-08-28T20:29:32.713Z,1.73
2023-08-28T20:32:00.732Z,2.17
2023-08-28T20:34:28.063Z,1.90
2023-08-28T20:36:55.432Z,2.20
2023-08-28T20:39:23.807Z,2.10
2023-08-28T20:41:51.380Z,2.30
2023-08-28T20:44:22.294Z,2.00
2023-08-28T20:46:50.868Z,1.70
2023-08-28T20:49:22.388Z,2.20
2023-08-28T20:51:50.057Z,1.50
2023-08-28T20:54:19.634Z,2.17
2023-08-28T20:56:48.021Z,1.87
2023-08-28T20:59:16.454Z,1.90
2023-08-28T21:01:43.845Z,1.90
2023-08-28T21:04:10.959Z,2.07
2023-08-28T21:06:38.200Z,1.83
2023-08-28T21:09:06.205Z,1.60
2023-08-28T21:11:34.081Z,1.63
2023-08-28T21:14:17.581Z,1.80
2023-08-28T21:16:45.060Z,1.90
2023-08-28T21:19:27.696Z,2.07
2023-08-28T21:22:01.780Z,1.80
2023-08-28T21:24:28.805Z,1.93
2023-08-28T21:26:59.063Z,1.60
2023-08-28T21:29:44.957Z,1.80
2023-08-28T21:32:17.407Z,1.77
2023-08-28T21:34:47.127Z,2.00
2023-08-28T21:37:14.124Z,1.80
2023-08-28T21:39:41.020Z,1.63
2023-08-28T21:42:07.864Z,1.70
2023-08-28T21:44:34.701Z,1.30
2023-08-28T21:47:02.426Z,1.20
2023-08-28T21:49:47.865Z,1.43
2023-08-28T21:52:34.597Z,1.10
2023-08-28T21:55:20.000Z,1.47
2023-08-28T21:58:06.123Z,1.40
2023-08-28T22:00:52.127Z,1.67
2023-08-28T22:03:37.459Z,1.60
2023-08-28T22:06:22.973Z,1.50
2023-08-28T22:08:49.888Z,1.27
2023-08-28T22:11:22.798Z,1.10
2023-08-28T22:13:54.753Z,1.57
2023-08-28T22:16:21.737Z,1.30
2023-08-28T22:18:48.689Z,1.20
2023-08-28T22:21:16.979Z,1.20
2023-08-28T22:23:44.284Z,1.30
2023-08-28T22:26:11.816Z,1.10
2023-08-28T22:28:38.673Z,1.00
2023-08-28T22:31:07.062Z,1.20
2023-08-28T22:33:33.978Z,1.07
2023-08-28T22:36:01.134Z,1.27
2023-08-28T22:38:28.226Z,1.10
2023-08-28T22:40:54.983Z,1.00
2023-08-28T22:43:22.063Z,1.30
2023-08-28T22:45:48.867Z,1.30
2023-08-28T22:48:16.684Z,1.50
2023-08-28T22:50:43.581Z,1.40
2023-08-28T22:53:11.005Z,1.47
2023-08-28T22:55:37.804Z,1.50
2023-08-28T22:58:05.494Z,1.60
2023-08-28T23:00:32.412Z,1.50
2023-08-28T23:02:59.290Z,2.20
2023-08-28T23:05:26.236Z,2.20
2023-08-28T23:07:55.264Z,2.20
2023-08-28T23:10:22.285Z,2.03
2023-08-28T23:12:49.143Z,2.10
2023-08-28T23:15:17.715Z,2.50
2023-08-28T23:17:44.933Z,2.53
2023-08-28T23:20:14.069Z,2.63
2023-08-28T23:22:41.465Z,2.87
2023-08-28T23:25:08.553Z,2.60
2023-08-28T23:27:38.909Z,2.30
2023-08-28T23:30:06.465Z,2.80
2023-08-28T23:32:33.241Z,2.70
2023-08-28T23:35:01.936Z,2.67
2023-08-28T23:37:30.081Z,2.53
2023-08-28T23:39:57.179Z,2.40
2023-08-28T23:42:24.075Z,2.10
2023-08-28T23:44:51.104Z,2.27
2023-08-28T23:47:18.671Z,2.33
2023-08-28T23:49:46.632Z,2.50
2023-08-28T23:52:13.485Z,2.50
2023-08-28T23:54:40.594Z,2.60
2023-08-28T23:57:07.475Z,2.90
2023-08-28T23:59:36.724Z,2.87
